Terminal Aerodrome Forecast
Issued by NWS

Home | Current Version | Previous Version | Text Only | Print | Product List | Glossary On
Versions: 1 2 3 4 5 6 7 8 9 10 11 12 13 14 15 16 17 18 19 20 21 22 23 24 25 26 27 28 29 30 31
000
FTUS43 KDLH 211500 AAA
TAFHIB
TAF AMD
KHIB 211514Z 2115/2212 19009G14KT P6SM SCT080 BKN100
     FM211600 20013G22KT P6SM BKN090
     FM211900 20014G25KT P6SM SCT025 BKN100
     FM220300 21010KT 5SM BR OVC003 WS020/23040KT=

USA.gov is the U.S. government's official web portal to all federal, state and local government web resources and services.